createdAt,value
2019-03-21T00:00:52.258Z,0.00
2019-03-21T00:01:52.262Z,0.00
2019-03-21T00:02:52.278Z,0.00
2019-03-21T00:03:52.288Z,0.00
2019-03-21T00:04:52.302Z,0.00
2019-03-21T00:05:52.319Z,0.00
2019-03-21T00:06:52.329Z,0.00
2019-03-21T00:07:52.344Z,0.00
2019-03-21T00:08:52.353Z,0.00
2019-03-21T00:09:52.362Z,0.00
2019-03-21T00:10:52.372Z,0.00
2019-03-21T00:11:52.386Z,0.00
2019-03-21T00:12:52.399Z,0.00
2019-03-21T00:13:52.407Z,0.00
2019-03-21T00:14:52.484Z,0.00
2019-03-21T00:15:52.434Z,0.00
2019-03-21T00:16:52.449Z,0.00
2019-03-21T00:17:52.462Z,0.00
2019-03-21T00:18:52.469Z,0.00
2019-03-21T00:19:52.485Z,0.00
2019-03-21T00:20:52.492Z,0.00
2019-03-21T00:21:52.525Z,0.00
2019-03-21T00:22:52.522Z,0.00
2019-03-21T00:23:52.527Z,0.00
2019-03-21T00:24:52.547Z,0.00
2019-03-21T00:25:52.560Z,0.00
2019-03-21T00:26:52.578Z,0.00
2019-03-21T00:27:52.577Z,0.00
2019-03-21T00:28:52.591Z,0.00
2019-03-21T00:29:52.614Z,0.00
2019-03-21T00:30:52.622Z,0.00
2019-03-21T00:31:52.632Z,0.00
2019-03-21T00:32:52.647Z,0.00
2019-03-21T00:33:52.645Z,0.00
2019-03-21T00:34:52.663Z,0.00
2019-03-21T00:35:52.663Z,0.00
2019-03-21T00:36:52.705Z,0.00
2019-03-21T00:37:52.723Z,0.00
2019-03-21T00:38:52.713Z,0.00
2019-03-21T00:39:52.851Z,0.00
2019-03-21T00:40:52.739Z,0.00
2019-03-21T00:41:52.757Z,0.00
2019-03-21T00:42:52.765Z,0.00
2019-03-21T00:43:52.773Z,0.00
2019-03-21T00:44:52.785Z,0.00
2019-03-21T00:45:52.812Z,0.00
2019-03-21T00:46:52.813Z,0.00
2019-03-21T00:47:52.832Z,0.00
2019-03-21T00:48:52.840Z,0.00
2019-03-21T00:49:52.844Z,0.00
2019-03-21T00:50:52.852Z,0.00
2019-03-21T00:51:52.866Z,0.00
2019-03-21T00:52:52.890Z,0.00
2019-03-21T00:53:52.908Z,0.00
2019-03-21T00:54:52.916Z,0.00
2019-03-21T00:55:52.930Z,0.00
2019-03-21T00:56:52.930Z,0.00
2019-03-21T00:57:52.941Z,0.00
2019-03-21T00:58:52.958Z,0.00
2019-03-21T00:59:52.964Z,0.00
2019-03-21T01:00:52.980Z,0.00
2019-03-21T01:01:52.992Z,0.00
2019-03-21T01:02:53.006Z,0.00
2019-03-21T01:03:53.020Z,0.00
2019-03-21T01:04:53.028Z,0.00
2019-03-21T01:05:53.042Z,0.00
2019-03-21T01:06:53.054Z,0.00
2019-03-21T01:07:53.069Z,0.00
2019-03-21T01:08:53.091Z,0.00
2019-03-21T01:09:53.085Z,0.00
2019-03-21T01:10:53.108Z,0.00
2019-03-21T01:11:53.116Z,0.00
2019-03-21T01:12:53.124Z,0.00
2019-03-21T01:13:53.133Z,0.00
2019-03-21T01:14:53.144Z,0.00
2019-03-21T01:15:53.160Z,0.00
2019-03-21T01:16:53.172Z,0.00
2019-03-21T01:17:53.182Z,0.00
2019-03-21T01:18:53.188Z,0.00
2019-03-21T01:19:53.204Z,0.00
2019-03-21T01:20:53.370Z,0.00
2019-03-21T01:21:53.228Z,0.00
2019-03-21T01:22:53.408Z,0.00
2019-03-21T01:23:53.259Z,0.00
2019-03-21T01:24:53.272Z,0.00
2019-03-21T01:25:53.278Z,0.00
2019-03-21T01:26:53.290Z,0.00
2019-03-21T01:27:53.305Z,0.00
2019-03-21T01:28:53.324Z,0.00
2019-03-21T01:29:53.332Z,0.00
2019-03-21T01:30:53.337Z,0.00
2019-03-21T01:31:54.613Z,0.00
2019-03-21T01:32:53.366Z,0.00
2019-03-21T01:33:53.369Z,0.00
2019-03-21T01:34:53.390Z,0.00
2019-03-21T01:35:53.400Z,0.00
2019-03-21T01:36:53.408Z,0.00
2019-03-21T01:37:53.418Z,0.00
2019-03-21T01:38:53.434Z,0.00
2019-03-21T01:39:53.444Z,0.00
2019-03-21T01:40:53.456Z,0.00
2019-03-21T01:41:53.462Z,0.00
2019-03-21T01:42:53.486Z,0.00
2019-03-21T01:43:53.484Z,0.00
2019-03-21T01:44:53.490Z,0.00
2019-03-21T01:45:53.530Z,0.00
2019-03-21T01:46:53.524Z,0.00
2019-03-21T01:47:53.532Z,0.00
2019-03-21T01:48:53.545Z,0.00
2019-03-21T01:49:53.556Z,0.00
2019-03-21T01:50:53.577Z,0.00
2019-03-21T01:51:53.585Z,0.00
2019-03-21T01:52:53.591Z,0.00
2019-03-21T01:53:53.605Z,0.00
2019-03-21T01:54:53.614Z,0.00
2019-03-21T01:55:53.623Z,0.00
2019-03-21T01:56:53.637Z,0.00
2019-03-21T01:57:53.651Z,0.00
2019-03-21T01:58:53.665Z,0.00
2019-03-21T01:59:53.677Z,0.00
2019-03-21T02:00:53.684Z,0.00
2019-03-21T02:01:53.695Z,0.00
2019-03-21T02:02:53.709Z,0.00
2019-03-21T02:03:53.721Z,0.00
2019-03-21T02:04:53.731Z,0.00
2019-03-21T02:05:53.753Z,0.00
2019-03-21T02:06:53.763Z,0.00
2019-03-21T02:07:53.763Z,0.00
2019-03-21T02:08:53.789Z,0.00
2019-03-21T02:09:53.793Z,0.00
2019-03-21T02:10:53.804Z,0.00
2019-03-21T02:11:53.809Z,0.00
2019-03-21T02:12:53.821Z,0.00
2019-03-21T02:13:53.837Z,0.00
2019-03-21T02:14:53.859Z,0.00
2019-03-21T02:15:53.859Z,0.00
2019-03-21T02:16:53.872Z,0.00
2019-03-21T02:17:53.881Z,0.00
2019-03-21T02:18:53.897Z,0.00
2019-03-21T02:19:53.907Z,0.00
2019-03-21T02:20:53.917Z,0.00
2019-03-21T02:21:53.929Z,0.00
2019-03-21T02:22:53.941Z,0.00
2019-03-21T02:23:53.949Z,0.00
2019-03-21T02:24:53.969Z,0.00
2019-03-21T02:25:53.974Z,0.00
2019-03-21T02:26:53.991Z,0.00
2019-03-21T02:27:53.995Z,0.00
2019-03-21T02:28:54.005Z,0.00
2019-03-21T02:29:54.023Z,0.00
2019-03-21T02:30:54.046Z,0.00
2019-03-21T02:31:54.044Z,0.00
2019-03-21T02:32:54.060Z,0.00
2019-03-21T02:33:54.069Z,0.00
2019-03-21T02:34:54.086Z,0.00
2019-03-21T02:35:54.145Z,0.00
2019-03-21T02:36:54.107Z,0.00
2019-03-21T02:37:54.119Z,0.00
2019-03-21T02:38:54.126Z,0.00
2019-03-21T02:39:59.902Z,0.00
2019-03-21T02:40:54.160Z,0.00
2019-03-21T02:41:54.167Z,0.00
2019-03-21T02:42:54.170Z,0.00
2019-03-21T02:43:54.183Z,0.00
2019-03-21T02:45:07.651Z,0.00
2019-03-21T02:45:54.205Z,0.00
2019-03-21T02:46:54.219Z,0.00
2019-03-21T02:47:54.232Z,0.00
2019-03-21T02:48:54.243Z,0.00
2019-03-21T02:49:54.248Z,0.00
2019-03-21T02:50:54.269Z,0.00
2019-03-21T02:51:54.286Z,0.00
2019-03-21T02:52:54.323Z,0.00
2019-03-21T02:53:54.294Z,0.00
2019-03-21T02:54:54.317Z,0.00
2019-03-21T02:55:54.318Z,0.00
2019-03-21T02:56:54.330Z,0.00
2019-03-21T02:57:54.341Z,0.00
2019-03-21T02:58:54.361Z,0.00
2019-03-21T02:59:54.354Z,0.00
2019-03-21T03:00:54.380Z,0.00
2019-03-21T03:01:54.390Z,0.00
2019-03-21T03:02:54.402Z,0.00
2019-03-21T03:03:54.442Z,0.00
2019-03-21T03:04:54.433Z,0.00
2019-03-21T03:05:54.429Z,0.00
2019-03-21T03:06:54.445Z,0.00
2019-03-21T03:07:54.452Z,0.00
2019-03-21T03:08:54.463Z,0.00
2019-03-21T03:09:54.477Z,0.00
2019-03-21T03:10:54.491Z,0.00
2019-03-21T03:11:54.515Z,0.00
2019-03-21T03:12:54.518Z,0.00
2019-03-21T03:13:54.533Z,0.00
2019-03-21T03:14:54.557Z,0.00
2019-03-21T03:15:54.615Z,0.00
2019-03-21T03:16:54.554Z,0.00
2019-03-21T03:17:54.575Z,0.00
2019-03-21T03:18:54.589Z,0.00
2019-03-21T03:19:54.592Z,0.00
2019-03-21T03:20:54.607Z,0.00
2019-03-21T03:21:54.629Z,0.00
2019-03-21T03:22:54.642Z,0.00
2019-03-21T03:23:54.638Z,0.00
2019-03-21T03:24:54.653Z,0.00
2019-03-21T03:25:54.647Z,0.00
2019-03-21T03:26:54.668Z,0.00
2019-03-21T03:27:54.675Z,0.00
2019-03-21T03:28:54.688Z,0.00
2019-03-21T03:29:54.704Z,0.00
2019-03-21T03:30:54.715Z,0.00
2019-03-21T03:31:54.719Z,0.00
2019-03-21T03:32:54.733Z,0.00
2019-03-21T03:33:54.733Z,0.00
2019-03-21T03:34:54.754Z,0.00
2019-03-21T03:35:54.830Z,0.00
2019-03-21T03:36:54.792Z,0.00
2019-03-21T03:37:54.791Z,0.00
2019-03-21T03:38:54.801Z,0.00
2019-03-21T03:39:54.916Z,0.00
2019-03-21T03:40:54.821Z,0.00
2019-03-21T03:41:54.833Z,0.00
2019-03-21T03:42:54.848Z,0.00
2019-03-21T03:43:54.969Z,0.00
2019-03-21T03:44:54.865Z,0.00
2019-03-21T03:45:54.892Z,0.00
2019-03-21T03:46:54.887Z,0.00
2019-03-21T03:47:54.900Z,0.00
2019-03-21T03:48:54.913Z,0.00
2019-03-21T03:49:54.947Z,0.00
2019-03-21T03:50:54.942Z,0.00
2019-03-21T03:51:54.954Z,0.00
2019-03-21T03:52:54.960Z,0.00
2019-03-21T03:53:54.969Z,0.00
2019-03-21T03:54:54.988Z,0.00
2019-03-21T03:55:54.993Z,0.00
2019-03-21T03:56:55.000Z,0.00
2019-03-21T03:57:55.020Z,0.00
2019-03-21T03:58:55.025Z,0.00
2019-03-21T03:59:55.033Z,0.00
2019-03-21T04:00:55.048Z,0.00
2019-03-21T04:01:55.053Z,0.00
2019-03-21T04:02:55.064Z,0.00
2019-03-21T04:03:55.080Z,0.00
2019-03-21T04:04:55.085Z,0.00
2019-03-21T04:05:55.101Z,0.00
2019-03-21T04:06:55.113Z,0.00
2019-03-21T04:07:55.127Z,0.00
2019-03-21T04:08:55.133Z,0.00
2019-03-21T04:09:55.160Z,0.00
2019-03-21T04:10:55.148Z,0.00
2019-03-21T04:11:55.165Z,0.00
2019-03-21T04:12:55.180Z,0.00
2019-03-21T04:13:55.192Z,0.00
2019-03-21T04:14:55.202Z,0.00
2019-03-21T04:15:55.218Z,0.00
2019-03-21T04:16:55.228Z,0.00
2019-03-21T04:17:55.233Z,0.00
2019-03-21T04:18:55.246Z,0.00
2019-03-21T04:19:55.252Z,0.00
2019-03-21T04:20:55.272Z,0.00
2019-03-21T04:21:55.315Z,0.00
2019-03-21T04:22:55.289Z,0.00
2019-03-21T04:23:55.312Z,0.00
2019-03-21T04:24:55.316Z,0.00
2019-03-21T04:25:55.348Z,0.00
2019-03-21T04:26:55.335Z,0.00
2019-03-21T04:27:55.346Z,0.00
2019-03-21T04:28:55.367Z,0.00
2019-03-21T04:29:55.370Z,0.00
2019-03-21T04:30:55.379Z,0.00
2019-03-21T04:31:55.401Z,0.00
2019-03-21T04:32:55.408Z,0.00
2019-03-21T04:33:55.410Z,0.00
2019-03-21T04:34:55.464Z,0.00
2019-03-21T04:35:55.439Z,0.00
2019-03-21T04:36:55.450Z,0.00
2019-03-21T04:37:55.455Z,0.00
2019-03-21T04:38:55.473Z,0.00
2019-03-21T04:39:55.484Z,0.00
2019-03-21T04:40:55.489Z,0.00
2019-03-21T04:41:55.497Z,0.00
2019-03-21T04:42:55.518Z,0.00
2019-03-21T04:43:55.522Z,0.00
2019-03-21T04:44:55.531Z,0.00
2019-03-21T04:46:03.277Z,0.00
2019-03-21T04:46:55.554Z,0.00
2019-03-21T04:47:55.569Z,0.00
2019-03-21T04:48:55.570Z,0.00
2019-03-21T04:49:55.582Z,0.00
2019-03-21T04:50:55.598Z,0.00
2019-03-21T04:51:55.612Z,0.00
2019-03-21T04:52:55.614Z,0.00
2019-03-21T04:53:55.641Z,0.00
2019-03-21T04:54:55.639Z,0.00
2019-03-21T04:55:55.659Z,0.00
2019-03-21T04:56:55.664Z,0.00
2019-03-21T04:57:55.674Z,0.00
2019-03-21T04:58:55.686Z,0.00
2019-03-21T04:59:55.700Z,0.00
2019-03-21T05:00:55.715Z,0.00
2019-03-21T05:01:55.723Z,0.00
2019-03-21T05:02:55.731Z,0.00
2019-03-21T05:03:55.732Z,0.00
2019-03-21T05:04:55.753Z,0.00
2019-03-21T05:05:55.765Z,0.00
2019-03-21T05:06:55.772Z,0.00
2019-03-21T05:07:55.781Z,0.00
2019-03-21T05:08:55.794Z,0.00
2019-03-21T05:09:55.807Z,0.00
2019-03-21T05:10:55.813Z,0.00
2019-03-21T05:11:55.828Z,0.00
2019-03-21T05:12:55.837Z,0.00
2019-03-21T05:13:55.858Z,0.00
2019-03-21T05:14:55.862Z,0.00
2019-03-21T05:15:55.876Z,0.00
2019-03-21T05:16:55.878Z,0.00
2019-03-21T05:17:55.898Z,0.00
2019-03-21T05:18:55.902Z,0.00
2019-03-21T05:19:55.910Z,0.00
2019-03-21T05:20:55.927Z,0.00
2019-03-21T05:21:55.934Z,0.00
2019-03-21T05:22:55.950Z,0.00
2019-03-21T05:23:55.954Z,0.00
2019-03-21T05:24:55.963Z,5.63
2019-03-21T05:25:55.975Z,5.63
2019-03-21T05:26:55.989Z,5.63
2019-03-21T05:27:55.999Z,5.63
2019-03-21T05:28:56.015Z,5.63
2019-03-21T05:29:56.021Z,5.63
2019-03-21T05:30:56.043Z,5.63
2019-03-21T05:31:56.041Z,5.63
2019-03-21T05:32:56.051Z,11.25
2019-03-21T05:33:56.058Z,11.25
2019-03-21T05:34:56.074Z,11.25
2019-03-21T05:35:56.082Z,11.25
2019-03-21T05:36:56.107Z,11.25
2019-03-21T05:37:56.125Z,16.88
2019-03-21T05:38:56.107Z,16.88
2019-03-21T05:39:56.127Z,16.88
2019-03-21T05:40:56.152Z,16.88
2019-03-21T05:41:56.147Z,22.50
2019-03-21T05:42:56.159Z,22.50
2019-03-21T05:43:56.170Z,22.50
2019-03-21T05:44:56.179Z,28.13
2019-03-21T05:45:56.191Z,28.13
2019-03-21T05:46:56.215Z,28.13
2019-03-21T05:47:56.219Z,33.75
2019-03-21T05:48:56.249Z,33.75
2019-03-21T05:49:56.231Z,33.75
2019-03-21T05:50:56.240Z,39.38
2019-03-21T05:51:56.249Z,39.38
2019-03-21T05:52:56.271Z,39.38
2019-03-21T05:53:56.295Z,45.00
2019-03-21T05:54:56.283Z,45.00
2019-03-21T05:55:56.299Z,45.00
2019-03-21T05:56:56.311Z,50.63
2019-03-21T05:57:56.318Z,50.63
2019-03-21T05:58:56.327Z,50.63
2019-03-21T05:59:56.339Z,56.25
2019-03-21T06:00:56.353Z,56.25
2019-03-21T06:01:56.357Z,56.25
2019-03-21T06:02:56.375Z,61.88
2019-03-21T06:03:56.373Z,61.88
2019-03-21T06:04:56.391Z,67.50
2019-03-21T06:05:56.403Z,67.50
2019-03-21T06:06:56.412Z,67.50
2019-03-21T06:07:56.426Z,73.13
2019-03-21T06:08:56.433Z,73.13
2019-03-21T06:09:56.447Z,78.75
2019-03-21T06:10:56.469Z,78.75
2019-03-21T06:11:56.469Z,84.38
2019-03-21T06:12:56.479Z,84.38
2019-03-21T06:13:56.483Z,90.00
2019-03-21T06:14:56.499Z,90.00
2019-03-21T06:15:56.502Z,95.63
2019-03-21T06:16:56.515Z,95.63
2019-03-21T06:17:56.519Z,101.25
2019-03-21T06:18:56.537Z,101.25
2019-03-21T06:19:56.543Z,106.88
2019-03-21T06:20:56.561Z,112.50
2019-03-21T06:21:56.567Z,112.50
2019-03-21T06:22:56.577Z,118.13
2019-03-21T06:23:56.589Z,118.13
2019-03-21T06:24:56.604Z,123.75
2019-03-21T06:25:56.614Z,123.75
2019-03-21T06:26:56.622Z,123.75
2019-03-21T06:27:56.634Z,129.38
2019-03-21T06:28:56.630Z,129.38
2019-03-21T06:29:56.696Z,135.00
2019-03-21T06:30:56.663Z,135.00
2019-03-21T06:31:56.676Z,135.00
2019-03-21T06:32:56.697Z,140.63
2019-03-21T06:33:56.701Z,140.63
2019-03-21T06:34:56.706Z,146.25
2019-03-21T06:35:56.717Z,151.88
2019-03-21T06:36:56.726Z,157.50
2019-03-21T06:37:56.746Z,157.50
2019-03-21T06:38:56.758Z,163.13
2019-03-21T06:39:56.768Z,163.13
2019-03-21T06:40:56.767Z,168.75
2019-03-21T06:41:56.786Z,168.75
2019-03-21T06:42:56.798Z,174.38
2019-03-21T06:43:56.789Z,174.38
2019-03-21T06:44:56.814Z,180.00
2019-03-21T06:45:56.848Z,180.00
2019-03-21T06:46:56.834Z,185.63
2019-03-21T06:47:56.957Z,180.00
2019-03-21T06:48:56.861Z,185.63
2019-03-21T06:49:56.877Z,185.63
2019-03-21T06:50:56.884Z,191.25
2019-03-21T06:51:56.897Z,191.25
2019-03-21T06:52:56.902Z,196.88
2019-03-21T06:53:57.012Z,196.88
2019-03-21T06:54:56.937Z,202.50
2019-03-21T06:55:56.934Z,202.50
2019-03-21T06:56:56.948Z,208.13
2019-03-21T06:57:56.978Z,208.13
2019-03-21T06:58:56.991Z,213.75
2019-03-21T06:59:56.998Z,213.75
2019-03-21T07:00:56.991Z,213.75
2019-03-21T07:01:57.011Z,213.75
2019-03-21T07:02:57.011Z,213.75
2019-03-21T07:04:06.581Z,213.75
2019-03-21T07:04:57.032Z,213.75
2019-03-21T07:05:57.040Z,219.38
2019-03-21T07:07:07.684Z,219.38
2019-03-21T07:07:57.068Z,225.00
2019-03-21T07:08:57.082Z,225.00
2019-03-21T07:09:57.092Z,230.63
2019-03-21T07:10:58.408Z,230.63
2019-03-21T07:11:57.111Z,230.63
2019-03-21T07:12:57.131Z,236.25
2019-03-21T07:13:57.142Z,236.25
2019-03-21T07:14:57.148Z,241.88
2019-03-21T07:15:57.157Z,241.88
2019-03-21T07:17:00.698Z,247.50
2019-03-21T07:17:57.187Z,247.50
2019-03-21T07:18:57.199Z,253.13
2019-03-21T07:19:57.202Z,258.75
2019-03-21T07:20:57.223Z,258.75
2019-03-21T07:21:57.232Z,264.38
2019-03-21T07:22:57.238Z,264.38
2019-03-21T07:23:57.252Z,264.38
2019-03-21T07:24:57.262Z,264.38
2019-03-21T07:25:57.279Z,270.00
2019-03-21T07:26:57.290Z,275.63
2019-03-21T07:27:57.313Z,270.00
2019-03-21T07:28:57.312Z,275.63
2019-03-21T07:29:57.322Z,275.63
2019-03-21T07:30:57.825Z,286.88
2019-03-21T07:31:57.353Z,281.25
2019-03-21T07:32:57.387Z,286.88
2019-03-21T07:33:57.370Z,298.13
2019-03-21T07:34:57.389Z,292.50
2019-03-21T07:35:57.443Z,298.13
2019-03-21T07:36:57.407Z,298.13
2019-03-21T07:37:57.414Z,303.75
2019-03-21T07:38:57.536Z,303.75
2019-03-21T07:39:57.436Z,309.38
2019-03-21T07:40:57.448Z,315.00
2019-03-21T07:41:57.463Z,315.00
2019-03-21T07:42:57.480Z,315.00
2019-03-21T07:43:57.479Z,315.00
2019-03-21T07:44:57.503Z,320.63
2019-03-21T07:45:57.508Z,326.25
2019-03-21T07:46:57.523Z,331.88
2019-03-21T07:47:57.538Z,331.88
2019-03-21T07:48:57.542Z,326.25
2019-03-21T07:49:57.557Z,309.38
2019-03-21T07:50:57.566Z,303.75
2019-03-21T07:51:57.580Z,337.50
2019-03-21T07:52:57.593Z,348.75
2019-03-21T07:53:57.642Z,343.13
2019-03-21T07:54:57.610Z,354.38
2019-03-21T07:55:57.617Z,354.38
2019-03-21T07:56:57.635Z,354.38
2019-03-21T07:57:59.467Z,360.00
2019-03-21T07:58:57.985Z,360.00
2019-03-21T07:59:57.696Z,348.75
2019-03-21T08:00:57.683Z,348.75
2019-03-21T08:01:57.700Z,360.00
2019-03-21T08:02:57.711Z,371.25
2019-03-21T08:03:57.719Z,365.63
2019-03-21T08:04:57.726Z,371.25
2019-03-21T08:05:57.740Z,376.88
2019-03-21T08:06:57.777Z,376.88
2019-03-21T08:07:57.767Z,376.88
2019-03-21T08:08:57.777Z,382.50
2019-03-21T08:09:57.787Z,382.50
2019-03-21T08:10:57.799Z,382.50
2019-03-21T08:11:57.812Z,382.50
2019-03-21T08:12:57.829Z,382.50
2019-03-21T08:13:57.835Z,376.88
2019-03-21T08:14:57.868Z,365.63
2019-03-21T08:15:57.864Z,365.63
2019-03-21T08:16:57.873Z,371.25
2019-03-21T08:17:57.889Z,382.50
2019-03-21T08:18:57.897Z,393.75
2019-03-21T08:19:57.903Z,399.38
2019-03-21T08:21:00.064Z,399.38
2019-03-21T08:21:57.931Z,410.63
2019-03-21T08:22:57.945Z,410.63
2019-03-21T08:23:57.965Z,421.88
2019-03-21T08:24:57.973Z,421.88
2019-03-21T08:25:57.980Z,421.88
2019-03-21T08:26:57.996Z,427.50
2019-03-21T08:27:58.008Z,427.50
2019-03-21T08:28:58.018Z,438.75
2019-03-21T08:29:58.030Z,438.75
2019-03-21T08:30:58.044Z,433.13
2019-03-21T08:31:58.058Z,444.38
2019-03-21T08:32:58.072Z,444.38
2019-03-21T08:33:58.083Z,444.38
2019-03-21T08:34:58.107Z,450.00
2019-03-21T08:35:58.109Z,450.00
2019-03-21T08:36:58.126Z,450.00
2019-03-21T08:37:58.139Z,455.63
2019-03-21T08:38:58.148Z,455.63
2019-03-21T08:39:58.156Z,461.25
2019-03-21T08:40:58.172Z,466.88
2019-03-21T08:41:58.188Z,466.88
2019-03-21T08:42:58.198Z,472.50
2019-03-21T08:43:58.212Z,478.13
2019-03-21T08:44:58.230Z,478.13
2019-03-21T08:45:58.240Z,478.13
2019-03-21T08:46:58.253Z,483.75
2019-03-21T08:47:58.267Z,483.75
2019-03-21T08:48:58.286Z,489.38
2019-03-21T08:49:58.294Z,489.38
2019-03-21T08:51:07.636Z,489.38
2019-03-21T08:51:58.316Z,495.00
2019-03-21T08:52:58.336Z,500.63
2019-03-21T08:53:58.347Z,506.25
2019-03-21T08:54:58.363Z,506.25
2019-03-21T08:55:58.372Z,506.25
2019-03-21T08:56:58.393Z,511.88
2019-03-21T08:57:58.408Z,511.88
2019-03-21T08:58:58.416Z,511.88
2019-03-21T08:59:58.468Z,511.88
2019-03-21T09:00:58.444Z,523.13
2019-03-21T09:01:58.463Z,517.50
2019-03-21T09:02:58.473Z,523.13
2019-03-21T09:03:58.488Z,528.75
2019-03-21T09:04:59.753Z,528.75
2019-03-21T09:05:58.514Z,523.13
2019-03-21T09:06:58.540Z,528.75
2019-03-21T09:07:58.540Z,540.00
2019-03-21T09:08:58.557Z,534.38
2019-03-21T09:09:58.571Z,528.75
2019-03-21T09:10:58.587Z,534.38
2019-03-21T09:11:58.607Z,534.38
2019-03-21T09:12:58.616Z,540.00
2019-03-21T09:13:58.628Z,534.38
2019-03-21T09:14:58.640Z,540.00
2019-03-21T09:15:58.650Z,540.00
2019-03-21T09:16:58.668Z,545.63
2019-03-21T09:17:58.675Z,545.63
2019-03-21T09:18:58.700Z,545.63
2019-03-21T09:19:58.717Z,545.63
2019-03-21T09:20:58.730Z,545.63
2019-03-21T09:21:58.740Z,545.63
2019-03-21T09:22:58.755Z,551.25
2019-03-21T09:23:58.770Z,556.88
2019-03-21T09:24:58.778Z,556.88
2019-03-21T09:25:58.796Z,556.88
2019-03-21T09:26:58.817Z,562.50
2019-03-21T09:28:02.981Z,568.13
2019-03-21T09:28:58.848Z,573.75
2019-03-21T09:29:58.852Z,562.50
2019-03-21T09:30:58.871Z,573.75
2019-03-21T09:31:58.878Z,585.00
2019-03-21T09:32:58.898Z,585.00
2019-03-21T09:33:58.922Z,585.00
2019-03-21T09:34:58.933Z,579.38
2019-03-21T09:35:59.058Z,573.75
2019-03-21T09:36:58.954Z,562.50
2019-03-21T09:37:59.040Z,579.38
2019-03-21T09:38:58.982Z,590.63
2019-03-21T09:39:59.008Z,601.88
2019-03-21T09:40:59.010Z,607.50
2019-03-21T09:41:59.032Z,613.13
2019-03-21T09:42:59.051Z,618.75
2019-03-21T09:43:59.064Z,624.38
2019-03-21T09:44:59.074Z,630.00
2019-03-21T09:45:59.088Z,635.63
2019-03-21T09:46:59.102Z,641.25
2019-03-21T09:47:59.110Z,635.63
2019-03-21T09:48:59.124Z,641.25
2019-03-21T09:49:59.472Z,646.88
2019-03-21T09:50:59.160Z,652.50
2019-03-21T09:51:59.170Z,652.50
2019-03-21T09:52:59.229Z,658.13
2019-03-21T09:54:09.280Z,663.75
2019-03-21T09:54:59.221Z,686.25
2019-03-21T09:56:01.168Z,697.50
2019-03-21T09:56:59.244Z,714.38
2019-03-21T09:57:59.260Z,810.00
2019-03-21T09:58:59.280Z,1501.88
2019-03-21T09:59:59.288Z,4865.63
2019-03-21T10:00:59.308Z,6795.00
2019-03-21T10:01:59.324Z,6631.88
2019-03-21T10:02:59.336Z,7031.25
2019-03-21T10:03:59.352Z,6941.25
2019-03-21T10:04:59.364Z,7801.88
2019-03-21T10:05:59.392Z,6930.00
2019-03-21T10:06:59.398Z,6508.13
2019-03-21T10:07:59.748Z,6423.75
2019-03-21T10:08:59.513Z,6255.00
2019-03-21T10:09:59.456Z,6401.25
2019-03-21T10:10:59.585Z,7340.63
2019-03-21T10:11:59.494Z,7425.00
2019-03-21T10:12:59.518Z,7098.75
2019-03-21T10:13:59.524Z,6952.50
2019-03-21T10:14:59.584Z,7329.38
2019-03-21T10:15:59.568Z,7357.50
2019-03-21T10:16:59.584Z,7779.38
2019-03-21T10:17:59.605Z,7936.88
2019-03-21T10:18:59.620Z,8156.25
2019-03-21T10:19:59.647Z,8223.75
2019-03-21T10:20:59.666Z,6716.25
2019-03-21T10:21:59.684Z,6401.25
2019-03-21T10:22:59.701Z,7565.63
2019-03-21T10:23:59.731Z,7689.38
2019-03-21T10:24:59.753Z,7627.50
2019-03-21T10:25:59.762Z,8150.63
2019-03-21T10:26:59.781Z,7678.13
2019-03-21T10:27:59.808Z,7920.00
2019-03-21T10:28:59.870Z,7830.00
2019-03-21T10:29:59.851Z,6665.63
2019-03-21T10:30:59.872Z,7104.38
2019-03-21T10:31:59.888Z,7509.38
2019-03-21T10:32:59.911Z,6991.88
2019-03-21T10:33:59.980Z,7042.50
2019-03-21T10:34:59.955Z,7419.38
2019-03-21T10:35:59.971Z,7267.50
2019-03-21T10:36:59.991Z,7194.38
2019-03-21T10:38:00.019Z,7323.75
2019-03-21T10:39:00.041Z,7126.88
2019-03-21T10:40:00.060Z,7278.75
2019-03-21T10:41:00.080Z,6806.25
2019-03-21T10:42:00.104Z,7205.63
2019-03-21T10:43:00.121Z,6547.50
2019-03-21T10:44:00.144Z,6885.00
2019-03-21T10:45:00.355Z,6688.13
2019-03-21T10:46:00.204Z,7070.63
2019-03-21T10:47:00.209Z,7835.63
2019-03-21T10:48:00.229Z,6907.50
2019-03-21T10:49:00.253Z,6935.63
2019-03-21T10:50:00.436Z,6885.00
2019-03-21T10:51:00.291Z,7093.13
2019-03-21T10:52:00.315Z,7087.50
2019-03-21T10:53:00.340Z,7070.63
2019-03-21T10:54:00.357Z,7599.38
2019-03-21T10:55:00.474Z,7537.50
2019-03-21T10:56:00.406Z,7385.63
2019-03-21T10:57:00.428Z,7706.25
2019-03-21T10:58:00.444Z,7762.50
2019-03-21T10:59:00.464Z,7695.00
2019-03-21T11:00:01.989Z,7723.13
2019-03-21T11:01:00.531Z,7413.75
2019-03-21T11:02:07.283Z,7869.38
2019-03-21T11:03:00.556Z,6592.50
2019-03-21T11:04:00.578Z,6750.00
2019-03-21T11:05:00.603Z,6541.88
2019-03-21T11:06:00.622Z,6581.25
2019-03-21T11:07:00.643Z,6975.00
2019-03-21T11:08:00.665Z,6901.88
2019-03-21T11:09:00.680Z,7121.25
2019-03-21T11:10:00.705Z,7436.25
2019-03-21T11:11:00.737Z,6581.25
2019-03-21T11:12:00.776Z,6890.63
2019-03-21T11:13:00.771Z,7020.00
2019-03-21T11:14:00.793Z,7402.50
2019-03-21T11:15:00.821Z,6924.38
2019-03-21T11:16:00.838Z,7470.00
2019-03-21T11:17:00.861Z,7368.75
2019-03-21T11:18:00.867Z,6907.50
2019-03-21T11:19:00.908Z,7171.88
2019-03-21T11:20:01.006Z,6620.63
2019-03-21T11:21:00.971Z,7160.63
2019-03-21T11:22:06.283Z,7048.13
2019-03-21T11:23:00.993Z,6963.75
2019-03-21T11:24:01.017Z,6946.88
2019-03-21T11:25:01.027Z,7020.00
2019-03-21T11:26:01.071Z,7340.63
2019-03-21T11:27:01.079Z,6671.25
2019-03-21T11:28:01.098Z,7284.38
2019-03-21T11:29:01.119Z,6750.00
2019-03-21T11:30:01.147Z,6423.75
2019-03-21T11:31:01.167Z,6941.25
2019-03-21T11:32:01.189Z,6620.63
2019-03-21T11:33:01.207Z,6811.88
2019-03-21T11:34:01.227Z,7014.38
2019-03-21T11:35:01.255Z,6789.38
2019-03-21T11:36:01.279Z,6845.63
2019-03-21T11:37:01.297Z,7042.50
2019-03-21T11:38:01.336Z,6986.25
2019-03-21T11:39:01.343Z,7503.75
2019-03-21T11:40:01.370Z,7295.63
2019-03-21T11:41:01.397Z,7807.50
2019-03-21T11:42:01.469Z,7835.63
2019-03-21T11:43:01.573Z,6238.13
2019-03-21T11:44:01.459Z,6300.00
2019-03-21T11:45:01.614Z,6750.00
2019-03-21T11:46:01.510Z,6255.00
2019-03-21T11:47:01.593Z,8010.00
2019-03-21T11:48:01.558Z,6468.75
2019-03-21T11:49:01.567Z,6356.25
2019-03-21T11:50:01.589Z,6648.75
2019-03-21T11:51:01.622Z,5990.63
2019-03-21T11:52:01.647Z,6058.13
2019-03-21T11:53:01.653Z,6637.50
2019-03-21T11:54:01.674Z,7987.50
2019-03-21T11:55:01.724Z,7824.38
2019-03-21T11:56:01.738Z,8533.13
2019-03-21T11:57:01.749Z,8415.00
2019-03-21T11:58:01.787Z,8308.13
2019-03-21T11:59:01.787Z,9579.38
2019-03-21T12:00:01.812Z,9675.00
2019-03-21T12:01:01.927Z,9478.13
2019-03-21T12:02:01.855Z,8403.75
2019-03-21T12:03:04.130Z,9534.38
2019-03-21T12:04:01.898Z,9146.25
2019-03-21T12:05:01.921Z,8223.75
2019-03-21T12:06:01.943Z,8870.63
2019-03-21T12:07:01.968Z,8640.00
2019-03-21T12:08:01.991Z,9174.38
2019-03-21T12:09:02.016Z,8308.13
2019-03-21T12:10:02.037Z,9253.13
2019-03-21T12:11:02.057Z,8246.25
2019-03-21T12:12:02.081Z,8201.25
2019-03-21T12:13:02.105Z,8347.50
2019-03-21T12:14:02.128Z,8493.75
2019-03-21T12:15:02.156Z,8386.88
2019-03-21T12:16:02.185Z,8302.50
2019-03-21T12:17:02.197Z,9663.75
2019-03-21T12:18:02.227Z,8398.13
2019-03-21T12:19:02.245Z,9534.38
2019-03-21T12:20:02.273Z,9708.75
2019-03-21T12:21:02.296Z,9073.13
2019-03-21T12:22:02.325Z,9011.25
2019-03-21T12:23:02.345Z,8606.25
2019-03-21T12:24:02.365Z,7610.63
2019-03-21T12:25:02.398Z,6727.50
2019-03-21T12:26:02.431Z,8746.88
2019-03-21T12:27:02.444Z,8133.75
2019-03-21T12:28:02.465Z,8100.00
2019-03-21T12:29:02.511Z,6901.88
2019-03-21T12:30:02.512Z,8325.00
2019-03-21T12:31:02.542Z,7059.38
2019-03-21T12:32:02.568Z,6063.75
2019-03-21T12:33:02.584Z,7785.00
2019-03-21T12:34:02.613Z,6541.88
2019-03-21T12:35:02.648Z,6311.25
2019-03-21T12:36:02.665Z,7734.38
2019-03-21T12:37:02.688Z,7762.50
2019-03-21T12:38:02.705Z,7588.13
2019-03-21T12:39:02.736Z,7931.25
2019-03-21T12:40:02.768Z,7194.38
2019-03-21T12:41:02.785Z,4798.13
2019-03-21T12:42:02.821Z,7335.00
2019-03-21T12:43:02.833Z,4578.75
2019-03-21T12:44:02.851Z,4719.38
2019-03-21T12:45:02.883Z,4719.38
2019-03-21T12:46:02.899Z,5506.88